sensor_id;sensor_type;location;lat;lon;timestamp;pressure;altitude;pressure_sealevel;temperature;humidity
24280;BME280;12395;42.808;23.408;2023-05-07T00:00:08;95129.00;;;9.19;100.00
24280;BME280;12395;42.808;23.408;2023-05-07T00:02:34;95130.03;;;9.25;100.00
24280;BME280;12395;42.808;23.408;2023-05-07T00:05:01;95132.00;;;9.16;100.00
24280;BME280;12395;42.808;23.408;2023-05-07T00:07:27;95128.13;;;9.12;100.00
24280;BME280;12395;42.808;23.408;2023-05-07T00:09:53;95123.16;;;9.03;100.00
24280;BME280;12395;42.808;23.408;2023-05-07T00:12:18;95121.69;;;8.94;100.00
24280;BME280;12395;42.808;23.408;2023-05-07T00:14:44;95129.78;;;8.92;100.00
24280;BME280;12395;42.808;23.408;2023-05-07T00:17:09;95129.78;;;8.92;100.00
24280;BME280;12395;42.808;23.408;2023-05-07T00:19:34;95131.44;;;8.93;100.00
24280;BME280;12395;42.808;23.408;2023-05-07T00:22:00;95106.56;;;8.88;100.00
24280;BME280;12395;42.808;23.408;2023-05-07T00:24:25;95111.13;;;8.94;100.00
24280;BME280;12395;42.808;23.408;2023-05-07T00:26:51;95116.41;;;8.94;100.00
24280;BME280;12395;42.808;23.408;2023-05-07T00:29:18;95123.16;;;9.03;100.00
24280;BME280;12395;42.808;23.408;2023-05-07T00:31:43;95126.81;;;9.02;100.00
24280;BME280;12395;42.808;23.408;2023-05-07T00:34:08;95113.09;;;8.92;100.00
24280;BME280;12395;42.808;23.408;2023-05-07T00:36:34;95106.41;;;8.89;100.00
24280;BME280;12395;42.808;23.408;2023-05-07T00:39:00;95124.91;;;8.89;100.00
24280;BME280;12395;42.808;23.408;2023-05-07T00:41:28;95112.31;;;8.91;100.00
24280;BME280;12395;42.808;23.408;2023-05-07T00:43:54;95126.50;;;8.90;100.00
24280;BME280;12395;42.808;23.408;2023-05-07T00:46:21;95116.28;;;8.81;100.00
24280;BME280;12395;42.808;23.408;2023-05-07T00:48:46;95116.28;;;8.81;100.00
24280;BME280;12395;42.808;23.408;2023-05-07T00:51:12;95134.06;;;8.93;100.00
24280;BME280;12395;42.808;23.408;2023-05-07T00:53:38;95124.06;;;8.89;100.00
24280;BME280;12395;42.808;23.408;2023-05-07T00:56:05;95142.00;;;8.93;100.00
24280;BME280;12395;42.808;23.408;2023-05-07T00:58:32;95138.91;;;8.90;100.00
24280;BME280;12395;42.808;23.408;2023-05-07T01:00:57;95144.03;;;8.91;100.00
24280;BME280;12395;42.808;23.408;2023-05-07T01:03:23;95135.53;;;8.75;100.00
24280;BME280;12395;42.808;23.408;2023-05-07T01:05:50;95151.69;;;8.86;100.00
24280;BME280;12395;42.808;23.408;2023-05-07T01:08:17;95152.88;;;8.84;100.00
24280;BME280;12395;42.808;23.408;2023-05-07T01:10:43;95151.38;;;8.75;100.00
24280;BME280;12395;42.808;23.408;2023-05-07T01:13:10;95141.41;;;8.70;100.00
24280;BME280;12395;42.808;23.408;2023-05-07T01:15:37;95143.59;;;8.67;100.00
24280;BME280;12395;42.808;23.408;2023-05-07T01:18:03;95131.72;;;8.56;100.00
24280;BME280;12395;42.808;23.408;2023-05-07T01:20:28;95140.47;;;8.57;100.00
24280;BME280;12395;42.808;23.408;2023-05-07T01:22:54;95130.81;;;8.49;100.00
24280;BME280;12395;42.808;23.408;2023-05-07T01:25:20;95145.75;;;8.57;100.00
24280;BME280;12395;42.808;23.408;2023-05-07T01:27:46;95134.84;;;8.45;100.00
24280;BME280;12395;42.808;23.408;2023-05-07T01:30:11;95148.19;;;8.58;100.00
24280;BME280;12395;42.808;23.408;2023-05-07T01:32:45;95118.78;;;8.40;100.00
24280;BME280;12395;42.808;23.408;2023-05-07T01:35:18;95150.97;;;8.50;100.00
24280;BME280;12395;42.808;23.408;2023-05-07T01:37:44;95144.97;;;8.41;100.00
24280;BME280;12395;42.808;23.408;2023-05-07T01:40:10;95150.47;;;8.40;100.00
24280;BME280;12395;42.808;23.408;2023-05-07T01:42:36;95136.16;;;8.34;100.00
24280;BME280;12395;42.808;23.408;2023-05-07T01:45:02;95140.25;;;8.37;100.00
24280;BME280;12395;42.808;23.408;2023-05-07T01:47:27;95121.16;;;8.35;100.00
24280;BME280;12395;42.808;23.408;2023-05-07T01:49:54;95124.34;;;8.51;100.00
24280;BME280;12395;42.808;23.408;2023-05-07T01:52:20;95121.13;;;8.77;100.00
24280;BME280;12395;42.808;23.408;2023-05-07T01:54:45;95124.81;;;9.04;100.00
24280;BME280;12395;42.808;23.408;2023-05-07T01:57:11;95119.66;;;9.23;100.00
24280;BME280;12395;42.808;23.408;2023-05-07T01:59:36;95108.69;;;9.26;100.00
24280;BME280;12395;42.808;23.408;2023-05-07T02:02:01;95117.56;;;9.47;100.00
24280;BME280;12395;42.808;23.408;2023-05-07T02:04:27;95104.78;;;9.57;100.00
24280;BME280;12395;42.808;23.408;2023-05-07T02:06:52;95103.81;;;9.64;100.00
24280;BME280;12395;42.808;23.408;2023-05-07T02:09:18;95097.72;;;9.70;100.00
24280;BME280;12395;42.808;23.408;2023-05-07T02:11:44;95105.91;;;9.82;100.00
24280;BME280;12395;42.808;23.408;2023-05-07T02:14:10;95106.38;;;9.92;100.00
24280;BME280;12395;42.808;23.408;2023-05-07T02:16:35;95093.53;;;9.89;100.00
24280;BME280;12395;42.808;23.408;2023-05-07T02:19:00;95082.34;;;9.93;100.00
24280;BME280;12395;42.808;23.408;2023-05-07T02:21:26;95060.75;;;9.83;100.00
24280;BME280;12395;42.808;23.408;2023-05-07T02:23:51;95100.56;;;10.16;100.00
24280;BME280;12395;42.808;23.408;2023-05-07T02:26:16;95093.47;;;10.23;100.00
24280;BME280;12395;42.808;23.408;2023-05-07T02:28:42;95102.03;;;10.32;100.00
24280;BME280;12395;42.808;23.408;2023-05-07T02:31:07;95104.06;;;10.36;100.00
24280;BME280;12395;42.808;23.408;2023-05-07T02:33:33;95088.78;;;10.25;100.00
24280;BME280;12395;42.808;23.408;2023-05-07T02:36:07;95099.59;;;10.30;100.00
24280;BME280;12395;42.808;23.408;2023-05-07T02:38:33;95105.06;;;10.35;100.00
24280;BME280;12395;42.808;23.408;2023-05-07T02:40:59;95097.53;;;10.26;100.00
24280;BME280;12395;42.808;23.408;2023-05-07T02:43:24;95101.41;;;10.30;100.00
24280;BME280;12395;42.808;23.408;2023-05-07T02:46:03;95103.44;;;10.21;100.00
24280;BME280;12395;42.808;23.408;2023-05-07T02:48:28;95098.13;;;10.21;100.00
24280;BME280;12395;42.808;23.408;2023-05-07T02:50:54;95105.06;;;10.22;100.00
24280;BME280;12395;42.808;23.408;2023-05-07T02:53:19;95098.13;;;10.15;100.00
24280;BME280;12395;42.808;23.408;2023-05-07T02:55:45;95097.91;;;10.16;100.00
24280;BME280;12395;42.808;23.408;2023-05-07T02:58:10;95097.06;;;10.09;100.00
24280;BME280;12395;42.808;23.408;2023-05-07T03:00:36;95105.44;;;10.13;100.00
24280;BME280;12395;42.808;23.408;2023-05-07T03:03:01;95117.66;;;10.20;100.00
24280;BME280;12395;42.808;23.408;2023-05-07T03:05:26;95115.41;;;10.11;100.00
24280;BME280;12395;42.808;23.408;2023-05-07T03:07:52;95111.25;;;9.95;100.00
24280;BME280;12395;42.808;23.408;2023-05-07T03:10:17;95108.59;;;9.95;100.00
24280;BME280;12395;42.808;23.408;2023-05-07T03:12:43;95101.47;;;9.89;100.00
24280;BME280;12395;42.808;23.408;2023-05-07T03:15:09;95112.91;;;9.96;100.00
24280;BME280;12395;42.808;23.408;2023-05-07T03:17:36;95105.34;;;9.93;100.00
24280;BME280;12395;42.808;23.408;2023-05-07T03:20:02;95101.84;;;9.86;100.00
24280;BME280;12395;42.808;23.408;2023-05-07T03:22:27;95110.25;;;9.96;100.00
24280;BME280;12395;42.808;23.408;2023-05-07T03:24:53;95130.44;;;10.10;100.00
24280;BME280;12395;42.808;23.408;2023-05-07T03:27:18;95111.06;;;10.03;100.00
24280;BME280;12395;42.808;23.408;2023-05-07T03:29:43;95129.84;;;10.08;100.00
24280;BME280;12395;42.808;23.408;2023-05-07T03:32:09;95127.59;;;10.05;100.00
24280;BME280;12395;42.808;23.408;2023-05-07T03:34:34;95126.78;;;10.04;100.00
24280;BME280;12395;42.808;23.408;2023-05-07T03:37:00;95122.31;;;10.05;100.00
24280;BME280;12395;42.808;23.408;2023-05-07T03:39:25;95129.22;;;10.06;100.00
24280;BME280;12395;42.808;23.408;2023-05-07T03:41:50;95123.69;;;10.01;100.00
24280;BME280;12395;42.808;23.408;2023-05-07T03:44:16;95121.03;;;10.01;100.00
24280;BME280;12395;42.808;23.408;2023-05-07T03:46:41;95129.69;;;10.16;100.00
24280;BME280;12395;42.808;23.408;2023-05-07T03:49:07;95125.63;;;10.20;100.00
24280;BME280;12395;42.808;23.408;2023-05-07T03:51:32;95120.75;;;10.24;100.00
24280;BME280;12395;42.808;23.408;2023-05-07T03:53:57;95127.91;;;10.36;100.00
24280;BME280;12395;42.808;23.408;2023-05-07T03:56:23;95140.75;;;10.33;100.00
24280;BME280;12395;42.808;23.408;2023-05-07T03:58:51;95144.41;;;10.38;100.00
24280;BME280;12395;42.808;23.408;2023-05-07T04:01:17;95153.97;;;10.26;100.00
24280;BME280;12395;42.808;23.408;2023-05-07T04:03:42;95143.56;;;10.25;100.00
24280;BME280;12395;42.808;23.408;2023-05-07T04:06:08;95152.13;;;10.27;100.00
24280;BME280;12395;42.808;23.408;2023-05-07T04:08:33;95163.13;;;10.24;100.00
24280;BME280;12395;42.808;23.408;2023-05-07T04:10:58;95155.75;;;10.13;100.00
24280;BME280;12395;42.808;23.408;2023-05-07T04:13:25;95169.63;;;10.21;100.00
24280;BME280;12395;42.808;23.408;2023-05-07T04:15:51;95172.28;;;10.28;100.00
24280;BME280;12395;42.808;23.408;2023-05-07T04:18:16;95170.69;;;10.33;100.00
24280;BME280;12395;42.808;23.408;2023-05-07T04:20:42;95175.78;;;10.28;100.00
24280;BME280;12395;42.808;23.408;2023-05-07T04:23:07;95172.72;;;10.31;100.00
24280;BME280;12395;42.808;23.408;2023-05-07T04:25:33;95180.44;;;10.26;100.00
24280;BME280;12395;42.808;23.408;2023-05-07T04:27:59;95184.13;;;10.32;100.00
24280;BME280;12395;42.808;23.408;2023-05-07T04:30:24;95174.13;;;10.27;100.00
24280;BME280;12395;42.808;23.408;2023-05-07T04:32:50;95143.34;;;10.13;100.00
24280;BME280;12395;42.808;23.408;2023-05-07T04:35:16;95175.81;;;10.41;100.00
24280;BME280;12395;42.808;23.408;2023-05-07T04:37:41;95175.22;;;10.52;100.00
24280;BME280;12395;42.808;23.408;2023-05-07T04:40:07;95186.69;;;10.72;100.00
24280;BME280;12395;42.808;23.408;2023-05-07T04:42:32;95165.69;;;10.77;100.00
24280;BME280;12395;42.808;23.408;2023-05-07T04:44:58;95189.16;;;11.07;100.00
24280;BME280;12395;42.808;23.408;2023-05-07T04:47:23;95170.59;;;11.07;100.00
24280;BME280;12395;42.808;23.408;2023-05-07T04:49:49;95185.31;;;11.29;100.00
24280;BME280;12395;42.808;23.408;2023-05-07T04:52:14;95182.22;;;11.45;100.00
24280;BME280;12395;42.808;23.408;2023-05-07T04:54:40;95188.97;;;11.54;100.00
24280;BME280;12395;42.808;23.408;2023-05-07T04:57:06;95190.56;;;11.75;100.00
24280;BME280;12395;42.808;23.408;2023-05-07T04:59:32;95191.16;;;11.83;100.00
24280;BME280;12395;42.808;23.408;2023-05-07T05:01:57;95200.34;;;11.94;100.00
24280;BME280;12395;42.808;23.408;2023-05-07T05:04:23;95191.34;;;11.95;100.00
24280;BME280;12395;42.808;23.408;2023-05-07T05:06:48;95189.47;;;12.02;100.00
24280;BME280;12395;42.808;23.408;2023-05-07T05:09:13;95193.75;;;12.09;100.00
24280;BME280;12395;42.808;23.408;2023-05-07T05:11:39;95147.84;;;11.96;100.00
24280;BME280;12395;42.808;23.408;2023-05-07T05:14:05;95195.34;;;12.17;100.00
24280;BME280;12395;42.808;23.408;2023-05-07T05:16:30;95179.06;;;12.00;100.00
24280;BME280;12395;42.808;23.408;2023-05-07T05:18:56;95197.41;;;12.15;100.00
24280;BME280;12395;42.808;23.408;2023-05-07T05:21:21;95201.47;;;12.24;100.00
24280;BME280;12395;42.808;23.408;2023-05-07T05:23:46;95192.91;;;12.22;100.00
24280;BME280;12395;42.808;23.408;2023-05-07T05:26:12;95209.66;;;12.22;100.00
24280;BME280;12395;42.808;23.408;2023-05-07T05:28:37;95204.75;;;12.19;100.00
24280;BME280;12395;42.808;23.408;2023-05-07T05:31:04;95201.69;;;12.22;100.00
24280;BME280;12395;42.808;23.408;2023-05-07T05:33:30;95205.78;;;12.18;100.00
24280;BME280;12395;42.808;23.408;2023-05-07T05:35:55;95200.88;;;12.15;100.00
24280;BME280;12395;42.808;23.408;2023-05-07T05:38:20;95199.44;;;12.19;100.00
24280;BME280;12395;42.808;23.408;2023-05-07T05:40:46;95201.03;;;12.33;100.00
24280;BME280;12395;42.808;23.408;2023-05-07T05:43:12;95214.69;;;12.44;100.00
24280;BME280;12395;42.808;23.408;2023-05-07T05:45:37;95203.44;;;12.42;100.00
24280;BME280;12395;42.808;23.408;2023-05-07T05:48:03;95204.84;;;12.51;100.00
24280;BME280;12395;42.808;23.408;2023-05-07T05:50:28;95212.97;;;12.56;100.00
24280;BME280;12395;42.808;23.408;2023-05-07T05:52:53;95193.59;;;12.55;100.00
24280;BME280;12395;42.808;23.408;2023-05-07T05:55:19;95209.00;;;12.78;100.00
24280;BME280;12395;42.808;23.408;2023-05-07T05:57:45;95209.38;;;12.81;100.00
24280;BME280;12395;42.808;23.408;2023-05-07T06:00:11;95213.03;;;12.87;100.00
24280;BME280;12395;42.808;23.408;2023-05-07T06:02:36;95215.84;;;12.92;100.00
24280;BME280;12395;42.808;23.408;2023-05-07T06:05:02;95188.94;;;12.82;100.00
24280;BME280;12395;42.808;23.408;2023-05-07T06:07:28;95214.16;;;13.10;100.00
24280;BME280;12395;42.808;23.408;2023-05-07T06:09:53;95211.44;;;13.17;100.00
24280;BME280;12395;42.808;23.408;2023-05-07T06:12:18;95197.31;;;13.17;100.00
24280;BME280;12395;42.808;23.408;2023-05-07T06:14:44;95191.34;;;13.21;100.00
24280;BME280;12395;42.808;23.408;2023-05-07T06:17:09;95202.50;;;13.36;100.00
24280;BME280;12395;42.808;23.408;2023-05-07T06:19:34;95191.22;;;13.41;100.00
24280;BME280;12395;42.808;23.408;2023-05-07T06:22:00;95187.03;;;13.51;100.00
24280;BME280;12395;42.808;23.408;2023-05-07T06:24:27;95209.97;;;13.70;99.74
24280;BME280;12395;42.808;23.408;2023-05-07T06:26:52;95213.25;;;13.72;99.26
24280;BME280;12395;42.808;23.408;2023-05-07T06:29:18;95203.31;;;13.79;98.18
24280;BME280;12395;42.808;23.408;2023-05-07T06:31:43;95205.72;;;13.87;98.32
24280;BME280;12395;42.808;23.408;2023-05-07T06:34:09;95186.03;;;13.88;98.31
24280;BME280;12395;42.808;23.408;2023-05-07T06:36:35;95187.38;;;13.98;97.74
24280;BME280;12395;42.808;23.408;2023-05-07T06:39:00;95180.56;;;14.02;96.86
24280;BME280;12395;42.808;23.408;2023-05-07T06:41:26;95194.06;;;14.07;96.50
24280;BME280;12395;42.808;23.408;2023-05-07T06:43:51;95178.66;;;14.09;98.53
24280;BME280;12395;42.808;23.408;2023-05-07T06:46:17;95178.28;;;14.23;98.08
24280;BME280;12395;42.808;23.408;2023-05-07T06:48:42;95179.69;;;14.26;96.49
24280;BME280;12395;42.808;23.408;2023-05-07T06:51:08;95169.03;;;14.26;96.59
24280;BME280;12395;42.808;23.408;2023-05-07T06:53:33;95179.41;;;14.34;97.47
24280;BME280;12395;42.808;23.408;2023-05-07T06:55:59;95174.81;;;14.41;97.01
24280;BME280;12395;42.808;23.408;2023-05-07T06:58:24;95184.59;;;14.47;96.68
24280;BME280;12395;42.808;23.408;2023-05-07T07:00:50;95184.22;;;14.43;95.43
24280;BME280;12395;42.808;23.408;2023-05-07T07:03:15;95177.50;;;14.41;94.67
24280;BME280;12395;42.808;23.408;2023-05-07T07:05:41;95188.56;;;14.56;96.96
24280;BME280;12395;42.808;23.408;2023-05-07T07:08:07;95184.53;;;14.65;96.31
24280;BME280;12395;42.808;23.408;2023-05-07T07:10:32;95194.91;;;14.73;93.65
24280;BME280;12395;42.808;23.408;2023-05-07T07:12:58;95172.53;;;14.74;95.01
24280;BME280;12395;42.808;23.408;2023-05-07T07:15:23;95160.44;;;14.72;94.84
24280;BME280;12395;42.808;23.408;2023-05-07T07:17:50;95163.75;;;14.85;96.24
24280;BME280;12395;42.808;23.408;2023-05-07T07:20:16;95170.84;;;14.91;93.50
24280;BME280;12395;42.808;23.408;2023-05-07T07:22:41;95173.66;;;14.96;93.27
24280;BME280;12395;42.808;23.408;2023-05-07T07:25:07;95171.38;;;15.11;96.35
24280;BME280;12395;42.808;23.408;2023-05-07T07:27:32;95169.88;;;15.27;94.94
24280;BME280;12395;42.808;23.408;2023-05-07T07:29:58;95184.00;;;15.46;92.39
24280;BME280;12395;42.808;23.408;2023-05-07T07:32:23;95166.34;;;15.44;93.08
24280;BME280;12395;42.808;23.408;2023-05-07T07:34:49;95176.72;;;15.64;92.22
24280;BME280;12395;42.808;23.408;2023-05-07T07:37:14;95181.81;;;15.77;88.89
24280;BME280;12395;42.808;23.408;2023-05-07T07:39:39;95189.47;;;15.85;87.18
24280;BME280;12395;42.808;23.408;2023-05-07T07:42:06;95189.59;;;15.90;87.04
24280;BME280;12395;42.808;23.408;2023-05-07T07:44:31;95175.75;;;15.93;88.60
24280;BME280;12395;42.808;23.408;2023-05-07T07:46:57;95187.28;;;15.94;85.68
24280;BME280;12395;42.808;23.408;2023-05-07T07:49:22;95183.91;;;15.98;84.38
24280;BME280;12395;42.808;23.408;2023-05-07T07:51:48;95183.66;;;16.11;85.96
24280;BME280;12395;42.808;23.408;2023-05-07T07:54:13;95178.31;;;16.11;81.45
24280;BME280;12395;42.808;23.408;2023-05-07T07:56:38;95174.69;;;16.17;82.56
24280;BME280;12395;42.808;23.408;2023-05-07T07:59:04;95185.72;;;16.21;79.18
24280;BME280;12395;42.808;23.408;2023-05-07T08:01:29;95169.22;;;16.24;77.30
24280;BME280;12395;42.808;23.408;2023-05-07T08:03:55;95189.22;;;16.33;79.12
24280;BME280;12395;42.808;23.408;2023-05-07T08:06:21;95180.81;;;16.41;78.50
24280;BME280;12395;42.808;23.408;2023-05-07T08:08:46;95187.09;;;16.58;79.60
24280;BME280;12395;42.808;23.408;2023-05-07T08:11:12;95179.34;;;16.73;79.51
24280;BME280;12395;42.808;23.408;2023-05-07T08:13:38;95195.22;;;16.91;76.01
24280;BME280;12395;42.808;23.408;2023-05-07T08:16:04;95182.75;;;16.97;77.08
24280;BME280;12395;42.808;23.408;2023-05-07T08:18:29;95181.06;;;17.08;76.66
24280;BME280;12395;42.808;23.408;2023-05-07T08:20:55;95171.03;;;17.15;78.55
24280;BME280;12395;42.808;23.408;2023-05-07T08:23:21;95168.53;;;17.25;76.67
24280;BME280;12395;42.808;23.408;2023-05-07T08:25:47;95178.94;;;17.38;75.71
24280;BME280;12395;42.808;23.408;2023-05-07T08:28:12;95171.56;;;17.45;72.79
24280;BME280;12395;42.808;23.408;2023-05-07T08:30:37;95188.63;;;17.55;71.48
24280;BME280;12395;42.808;23.408;2023-05-07T08:33:03;95164.00;;;17.42;73.46
24280;BME280;12395;42.808;23.408;2023-05-07T08:35:28;95177.25;;;17.65;73.08
24280;BME280;12395;42.808;23.408;2023-05-07T08:37:54;95173.59;;;17.88;74.24
24280;BME280;12395;42.808;23.408;2023-05-07T08:40:22;95172.34;;;17.95;72.50
24280;BME280;12395;42.808;23.408;2023-05-07T08:42:51;95172.00;;;18.08;73.03
24280;BME280;12395;42.808;23.408;2023-05-07T08:45:17;95173.81;;;18.24;69.07
24280;BME280;12395;42.808;23.408;2023-05-07T08:47:46;95168.91;;;18.16;67.79
24280;BME280;12395;42.808;23.408;2023-05-07T08:50:13;95174.38;;;18.26;65.86
24280;BME280;12395;42.808;23.408;2023-05-07T08:52:42;95155.13;;;18.29;66.76
24280;BME280;12395;42.808;23.408;2023-05-07T08:55:08;95164.03;;;18.35;63.32
24280;BME280;12395;42.808;23.408;2023-05-07T08:57:34;95154.75;;;18.42;63.86
24280;BME280;12395;42.808;23.408;2023-05-07T09:00:03;95150.06;;;18.50;63.68
24280;BME280;12395;42.808;23.408;2023-05-07T09:02:29;95150.06;;;18.50;64.18
24280;BME280;12395;42.808;23.408;2023-05-07T09:04:54;95155.72;;;18.75;69.00
24280;BME280;12395;42.808;23.408;2023-05-07T09:07:21;95147.09;;;18.99;67.65
24280;BME280;12395;42.808;23.408;2023-05-07T09:09:48;95115.91;;;18.93;62.53
24280;BME280;12395;42.808;23.408;2023-05-07T09:12:13;95150.56;;;19.21;56.63
24280;BME280;12395;42.808;23.408;2023-05-07T09:14:39;95123.63;;;19.16;56.47
24280;BME280;12395;42.808;23.408;2023-05-07T09:17:04;95128.41;;;19.36;63.26
24280;BME280;12395;42.808;23.408;2023-05-07T09:19:30;95136.34;;;19.53;60.45
24280;BME280;12395;42.808;23.408;2023-05-07T09:22:00;95131.91;;;19.68;61.28
24280;BME280;12395;42.808;23.408;2023-05-07T09:24:27;95121.66;;;19.65;54.28
24280;BME280;12395;42.808;23.408;2023-05-07T09:27:00;95126.59;;;19.78;57.86
24280;BME280;12395;42.808;23.408;2023-05-07T09:29:26;95130.13;;;19.84;56.96
24280;BME280;12395;42.808;23.408;2023-05-07T09:31:54;95134.03;;;20.08;57.04
24280;BME280;12395;42.808;23.408;2023-05-07T09:34:19;95131.94;;;20.15;59.30
24280;BME280;12395;42.808;23.408;2023-05-07T09:36:45;95125.72;;;20.15;56.38
24280;BME280;12395;42.808;23.408;2023-05-07T09:39:10;95137.84;;;20.12;52.90
24280;BME280;12395;42.808;23.408;2023-05-07T09:41:46;95121.72;;;20.12;54.78
24280;BME280;12395;42.808;23.408;2023-05-07T09:44:12;95121.47;;;20.19;53.97
24280;BME280;12395;42.808;23.408;2023-05-07T09:46:42;95109.03;;;20.08;52.72
24280;BME280;12395;42.808;23.408;2023-05-07T09:49:12;95120.97;;;20.22;50.71
24280;BME280;12395;42.808;23.408;2023-05-07T09:51:50;95103.22;;;20.21;51.27
24280;BME280;12395;42.808;23.408;2023-05-07T09:54:17;95116.22;;;20.49;54.55
24280;BME280;12395;42.808;23.408;2023-05-07T09:56:44;95120.63;;;20.65;52.59
24280;BME280;12395;42.808;23.408;2023-05-07T09:59:12;95112.00;;;20.68;48.21
24280;BME280;12395;42.808;23.408;2023-05-07T10:01:39;95107.44;;;20.78;51.22
24280;BME280;12395;42.808;23.408;2023-05-07T10:04:05;95106.41;;;20.95;49.25
24280;BME280;12395;42.808;23.408;2023-05-07T10:06:34;95102.09;;;20.94;46.31
24280;BME280;12395;42.808;23.408;2023-05-07T10:09:00;95096.78;;;21.04;47.83
24280;BME280;12395;42.808;23.408;2023-05-07T10:11:25;95095.69;;;21.10;50.44
24280;BME280;12395;42.808;23.408;2023-05-07T10:13:52;95100.28;;;21.24;50.73
24280;BME280;12395;42.808;23.408;2023-05-07T10:16:18;95082.22;;;21.20;49.36
24280;BME280;12395;42.808;23.408;2023-05-07T10:18:45;95080.88;;;21.32;48.45
24280;BME280;12395;42.808;23.408;2023-05-07T10:21:22;95090.03;;;21.57;47.16
24280;BME280;12395;42.808;23.408;2023-05-07T10:23:50;95076.28;;;21.63;42.29
24280;BME280;12395;42.808;23.408;2023-05-07T10:26:22;95068.72;;;21.60;47.05
24280;BME280;12395;42.808;23.408;2023-05-07T10:28:50;95067.38;;;21.68;44.98
24280;BME280;12395;42.808;23.408;2023-05-07T10:34:26;95049.03;;;21.85;40.09
24280;BME280;12395;42.808;23.408;2023-05-07T10:36:53;95065.19;;;21.95;41.34
24280;BME280;12395;42.808;23.408;2023-05-07T10:39:20;95061.06;;;22.22;43.73
24280;BME280;12395;42.808;23.408;2023-05-07T10:41:47;95055.88;;;22.36;38.12
24280;BME280;12395;42.808;23.408;2023-05-07T10:44:28;95054.00;;;22.37;38.38
24280;BME280;12395;42.808;23.408;2023-05-07T10:47:11;95061.00;;;22.38;36.61
24280;BME280;12395;42.808;23.408;2023-05-07T10:52:30;95023.91;;;22.58;38.08
24280;BME280;12395;42.808;23.408;2023-05-07T10:57:40;95058.00;;;22.98;40.34
24280;BME280;12395;42.808;23.408;2023-05-07T11:05:28;95054.19;;;23.04;37.17
24280;BME280;12395;42.808;23.408;2023-05-07T11:07:54;95051.16;;;23.11;35.67
24280;BME280;12395;42.808;23.408;2023-05-07T11:10:20;95041.56;;;22.94;33.95
24280;BME280;12395;42.808;23.408;2023-05-07T11:15:12;95041.16;;;22.67;35.00
24280;BME280;12395;42.808;23.408;2023-05-07T11:17:54;95055.47;;;22.73;35.15
24280;BME280;12395;42.808;23.408;2023-05-07T11:20:20;95042.00;;;22.58;34.29
24280;BME280;12395;42.808;23.408;2023-05-07T11:22:46;95040.63;;;22.65;36.79
24280;BME280;12395;42.808;23.408;2023-05-07T11:25:18;95031.84;;;22.88;39.46
24280;BME280;12395;42.808;23.408;2023-05-07T11:27:46;95048.00;;;22.98;35.07
24280;BME280;12395;42.808;23.408;2023-05-07T11:30:21;95037.94;;;22.65;33.83
24280;BME280;12395;42.808;23.408;2023-05-07T11:32:47;95045.03;;;22.46;36.93
24280;BME280;12395;42.808;23.408;2023-05-07T11:35:15;95040.13;;;22.63;39.78
24280;BME280;12395;42.808;23.408;2023-05-07T11:37:40;95020.66;;;22.66;38.62
24280;BME280;12395;42.808;23.408;2023-05-07T11:40:08;95031.84;;;22.88;39.78
24280;BME280;12395;42.808;23.408;2023-05-07T11:42:39;95028.56;;;22.96;38.95
24280;BME280;12395;42.808;23.408;2023-05-07T11:45:08;95033.97;;;22.96;37.64
24280;BME280;12395;42.808;23.408;2023-05-07T11:47:34;95015.31;;;22.95;40.62
24280;BME280;12395;42.808;23.408;2023-05-07T11:50:07;95026.00;;;23.10;39.92
24280;BME280;12395;42.808;23.408;2023-05-07T11:52:33;95015.41;;;23.19;40.43
24280;BME280;12395;42.808;23.408;2023-05-07T11:55:00;95015.09;;;23.25;38.55
24280;BME280;12395;42.808;23.408;2023-05-07T11:57:27;95004.41;;;23.10;38.35
24280;BME280;12395;42.808;23.408;2023-05-07T11:59:59;95025.00;;;23.01;37.77
24280;BME280;12395;42.808;23.408;2023-05-07T12:02:27;95018.91;;;22.85;38.16
24280;BME280;12395;42.808;23.408;2023-05-07T12:04:54;95019.16;;;22.84;36.34
24280;BME280;12395;42.808;23.408;2023-05-07T12:07:20;95015.59;;;22.98;38.50
24280;BME280;12395;42.808;23.408;2023-05-07T12:09:46;95017.66;;;23.12;38.40
24280;BME280;12395;42.808;23.408;2023-05-07T12:12:13;95011.56;;;23.25;39.47
24280;BME280;12395;42.808;23.408;2023-05-07T12:14:43;95009.88;;;23.39;39.13
24280;BME280;12395;42.808;23.408;2023-05-07T12:17:10;94993.41;;;23.30;36.18
24280;BME280;12395;42.808;23.408;2023-05-07T12:19:37;95009.34;;;23.32;36.30
24280;BME280;12395;42.808;23.408;2023-05-07T12:22:03;95001.00;;;23.28;36.50
24280;BME280;12395;42.808;23.408;2023-05-07T12:24:45;94986.81;;;23.13;34.71
24280;BME280;12395;42.808;23.408;2023-05-07T12:27:10;94991.03;;;23.24;40.35
24280;BME280;12395;42.808;23.408;2023-05-07T12:29:36;94993.75;;;23.52;38.90
24280;BME280;12395;42.808;23.408;2023-05-07T12:32:04;94983.13;;;23.61;35.62
24280;BME280;12395;42.808;23.408;2023-05-07T12:34:31;94985.28;;;23.64;36.96
24280;BME280;12395;42.808;23.408;2023-05-07T12:36:56;94985.06;;;23.84;36.13
24280;BME280;12395;42.808;23.408;2023-05-07T12:39:22;94990.91;;;23.91;36.95
24280;BME280;12395;42.808;23.408;2023-05-07T12:41:58;94982.69;;;24.01;37.77
24280;BME280;12395;42.808;23.408;2023-05-07T12:44:25;94986.91;;;24.12;35.38
24280;BME280;12395;42.808;23.408;2023-05-07T12:46:51;94979.59;;;24.13;35.51
24280;BME280;12395;42.808;23.408;2023-05-07T12:49:17;94972.75;;;23.97;34.86
24280;BME280;12395;42.808;23.408;2023-05-07T12:51:43;94968.03;;;24.07;36.85
24280;BME280;12395;42.808;23.408;2023-05-07T12:54:09;94958.34;;;24.25;37.77
24280;BME280;12395;42.808;23.408;2023-05-07T12:56:37;94959.59;;;24.32;37.51
24280;BME280;12395;42.808;23.408;2023-05-07T12:59:04;94950.44;;;24.47;36.99